Knightdale, NC (27545)

10:10 AM EDT on August 28, 2016 (GMT -0400)
Planters Walk | | Change Station

Elev 249 ft 35.79 °N, 78.51 °W | Updated 0 second ago

Mostly Cloudy
Mostly Cloudy
78.3 °F
Feels Like 81 °F
N
1.0
Wind Variable Wind from ESE
Gusts 3.0 mph

Today
High -- | Low -- °F
--% Chance of Precip.
Yesterday
High -- | Low -- °F
Precip. -- in
Pressure 30.24 in
Visibility 10.0 miles
Clouds Scattered Clouds 1300 ft
Mostly Cloudy 1900 ft
Heat Index 81 °F
Dew Point 74 °F
Humidity 86%
Rainfall 0.00 in
Snow Depth Not available.
6:43 AM 7:46 PM
Waning Crescent, 15% visible
METAR KLHZ 281400Z AUTO 04005KT 10SM SCT013 BKN019 25/22 A3024 RMK AO2
Pressure 30.24 in
Visibility 10.0 miles
Clouds Scattered Clouds 1300 ft
Mostly Cloudy 1900 ft
Heat Index 81 °F
Dew Point 74 °F
Humidity 86%
Rainfall 0.00 in
Snow Depth Not available.
6:43 AM 7:46 PM
Waning Crescent, 15% visible
METAR KLHZ 281400Z AUTO 04005KT 10SM SCT013 BKN019 25/22 A3024 RMK AO2

10-Day Weather Forecast

Almanac

Astronomy

Aug. 28, 2016 Rise Set
Actual Time
Civil Twilight
Nautical Twilight
Astronomical Twilight
Moon
Length of Visible Light
Length of Day
Tomorrow will be .
, % of the Moon is Illuminated

Today's Extremes

State Highs State Lows

Community

WunderPhotos

Upload Photos

1,935,569 photos uploaded!

WunderBlog® & News

Nearby

Air Quality

  Air Quality AQ Index Pollutant
Not available.

Snow Depth

Station Depth Elevation

Earthquake Activity

City Distance Mag. Time & Date
Minimum magnitude displayed is 2.5.

Coastal Water Temperatures

Place Temperature

Stations

Nearby Weather Stations

Station Location Temp. Windchill Dew Point Humidity Wind Precip. Elev Updated Type
                   

Watches & Warnings

There are currently no watches in effect.